createdAt,value
2018-04-25T00:00:10.043Z,31.40
2018-04-25T00:01:10.042Z,30.50
2018-04-25T00:02:10.031Z,32.30
2018-04-25T00:03:10.022Z,31.00
2018-04-25T00:04:10.016Z,32.60
2018-04-25T00:05:10.010Z,33.10
2018-04-25T00:06:10.002Z,33.10
2018-04-25T00:07:09.995Z,32.40
2018-04-25T00:08:09.990Z,33.50
2018-04-25T00:09:09.982Z,33.30
2018-04-25T00:10:09.977Z,33.00
2018-04-25T00:11:09.969Z,33.00
2018-04-25T00:12:09.960Z,34.20
2018-04-25T00:13:09.955Z,32.70
2018-04-25T00:14:09.947Z,34.10
2018-04-25T00:15:09.940Z,34.10
2018-04-25T00:16:09.934Z,33.60
2018-04-25T00:17:09.930Z,32.70
2018-04-25T00:18:09.919Z,33.00
2018-04-25T00:19:09.914Z,32.40
2018-04-25T00:20:09.909Z,32.50
2018-04-25T00:21:09.899Z,31.70
2018-04-25T00:22:09.891Z,32.90
2018-04-25T00:23:09.885Z,32.80
2018-04-25T00:24:09.881Z,32.80
2018-04-25T00:25:09.873Z,32.60
2018-04-25T00:26:09.867Z,32.30
2018-04-25T00:27:09.859Z,33.00
2018-04-25T00:28:09.850Z,32.50
2018-04-25T00:29:09.845Z,34.30
2018-04-25T00:30:09.836Z,33.80
2018-04-25T00:31:09.831Z,34.10
2018-04-25T00:32:09.823Z,35.60
2018-04-25T00:33:09.817Z,33.80
2018-04-25T00:34:09.809Z,34.60
2018-04-25T00:35:09.803Z,34.50
2018-04-25T00:36:09.796Z,35.00
2018-04-25T00:37:09.789Z,34.50
2018-04-25T00:38:09.781Z,34.70
2018-04-25T00:39:09.875Z,34.40
2018-04-25T00:40:09.767Z,33.50
2018-04-25T00:41:09.761Z,34.20
2018-04-25T00:42:09.754Z,34.80
2018-04-25T00:43:09.746Z,34.60
2018-04-25T00:44:09.739Z,34.50
2018-04-25T00:45:09.733Z,34.90
2018-04-25T00:46:09.727Z,32.50
2018-04-25T00:47:09.718Z,32.90
2018-04-25T00:48:09.712Z,31.20
2018-04-25T00:49:09.706Z,31.90
2018-04-25T00:50:09.697Z,31.60
2018-04-25T00:51:09.691Z,32.20
2018-04-25T00:52:09.685Z,31.20
2018-04-25T00:53:09.677Z,32.90
2018-04-25T00:54:09.669Z,31.50
2018-04-25T00:55:09.663Z,34.60
2018-04-25T00:56:09.656Z,33.10
2018-04-25T00:57:09.649Z,33.30
2018-04-25T00:58:09.642Z,32.80
2018-04-25T00:59:09.636Z,31.10
2018-04-25T01:00:09.628Z,31.70
2018-04-25T01:01:09.622Z,30.70
2018-04-25T01:02:09.615Z,30.30
2018-04-25T01:03:09.607Z,28.70
2018-04-25T01:04:09.600Z,27.80
2018-04-25T01:05:09.594Z,29.00
2018-04-25T01:06:09.586Z,27.80
2018-04-25T01:07:09.579Z,28.30
2018-04-25T01:08:09.577Z,28.30
2018-04-25T01:09:09.566Z,27.70
2018-04-25T01:10:09.557Z,27.50
2018-04-25T01:11:09.551Z,26.50
2018-04-25T01:12:09.545Z,25.80
2018-04-25T01:13:09.538Z,24.30
2018-04-25T01:14:09.529Z,25.70
2018-04-25T01:15:09.523Z,24.60
2018-04-25T01:16:09.516Z,24.60
2018-04-25T01:17:09.509Z,24.50
2018-04-25T01:18:09.500Z,25.00
2018-04-25T01:19:09.494Z,25.10
2018-04-25T01:20:09.488Z,26.30
2018-04-25T01:21:09.480Z,25.50
2018-04-25T01:22:09.472Z,26.30
2018-04-25T01:23:09.469Z,25.40
2018-04-25T01:24:09.457Z,26.20
2018-04-25T01:25:09.454Z,27.40
2018-04-25T01:26:09.444Z,27.80
2018-04-25T01:27:09.436Z,25.70
2018-04-25T01:28:09.430Z,27.20
2018-04-25T01:29:09.423Z,28.50
2018-04-25T01:30:09.415Z,28.40
2018-04-25T01:31:09.409Z,26.70
2018-04-25T01:32:09.402Z,25.00
2018-04-25T01:33:09.395Z,23.10
2018-04-25T01:34:09.390Z,23.10
2018-04-25T01:35:09.382Z,22.80
2018-04-25T01:36:09.375Z,22.40
2018-04-25T01:37:09.367Z,22.40
2018-04-25T01:38:09.359Z,22.80
2018-04-25T01:39:09.352Z,21.70
2018-04-25T01:40:09.401Z,22.10
2018-04-25T01:41:09.336Z,22.80
2018-04-25T01:42:09.332Z,24.20
2018-04-25T01:43:09.324Z,23.80
2018-04-25T01:44:09.317Z,24.30
2018-04-25T01:45:09.310Z,24.00
2018-04-25T01:46:09.302Z,24.00
2018-04-25T01:47:09.295Z,23.90
2018-04-25T01:48:09.287Z,23.20
2018-04-25T01:49:09.281Z,24.10
2018-04-25T01:50:09.280Z,24.10
2018-04-25T01:51:09.266Z,23.30
2018-04-25T01:52:09.259Z,23.60
2018-04-25T01:53:09.252Z,21.10
2018-04-25T01:54:09.243Z,23.40
2018-04-25T01:55:09.240Z,22.20
2018-04-25T01:56:09.230Z,23.20
2018-04-25T01:57:09.223Z,22.90
2018-04-25T01:58:09.215Z,22.90
2018-04-25T01:59:09.208Z,22.60
2018-04-25T02:00:09.205Z,22.80
2018-04-25T02:01:09.194Z,22.90
2018-04-25T02:02:09.184Z,22.40
2018-04-25T02:03:09.179Z,22.60
2018-04-25T02:04:09.171Z,22.40
2018-04-25T02:05:09.165Z,22.70
2018-04-25T02:06:09.160Z,23.40
2018-04-25T02:07:09.150Z,22.30
2018-04-25T02:08:09.143Z,22.00
2018-04-25T02:09:09.138Z,22.60
2018-04-25T02:10:09.127Z,21.70
2018-04-25T02:11:09.121Z,21.80
2018-04-25T02:12:09.114Z,21.30
2018-04-25T02:13:09.107Z,21.70
2018-04-25T02:14:09.098Z,22.50
2018-04-25T02:15:09.091Z,22.30
2018-04-25T02:16:09.083Z,23.80
2018-04-25T02:17:09.077Z,23.70
2018-04-25T02:18:09.070Z,22.60
2018-04-25T02:19:09.065Z,22.60
2018-04-25T02:20:09.054Z,22.40
2018-04-25T02:21:09.047Z,22.60
2018-04-25T02:22:09.042Z,24.00
2018-04-25T02:23:09.030Z,24.10
2018-04-25T02:24:09.025Z,23.70
2018-04-25T02:25:09.017Z,24.20
2018-04-25T02:26:09.012Z,23.80
2018-04-25T02:27:09.002Z,23.00
2018-04-25T02:28:08.995Z,23.50
2018-04-25T02:29:08.988Z,24.70
2018-04-25T02:30:08.981Z,24.60
2018-04-25T02:31:08.980Z,23.40
2018-04-25T02:32:08.965Z,23.40
2018-04-25T02:33:08.958Z,23.80
2018-04-25T02:34:08.955Z,24.40
2018-04-25T02:35:08.943Z,25.10
2018-04-25T02:36:08.935Z,24.00
2018-04-25T02:37:08.933Z,24.70
2018-04-25T02:38:08.922Z,24.50
2018-04-25T02:39:09.014Z,24.50
2018-04-25T02:40:08.906Z,25.20
2018-04-25T02:41:08.899Z,25.10
2018-04-25T02:42:08.894Z,24.60
2018-04-25T02:43:08.884Z,24.80
2018-04-25T02:44:08.881Z,25.00
2018-04-25T02:45:08.870Z,24.80
2018-04-25T02:46:08.860Z,25.80
2018-04-25T02:47:08.855Z,24.70
2018-04-25T02:48:08.848Z,25.20
2018-04-25T02:49:08.841Z,23.20
2018-04-25T02:50:08.833Z,24.50
2018-04-25T02:51:08.826Z,23.80
2018-04-25T02:52:08.818Z,24.80
2018-04-25T02:53:08.811Z,24.50
2018-04-25T02:54:08.803Z,23.40
2018-04-25T02:55:08.795Z,23.60
2018-04-25T02:56:08.787Z,24.00
2018-04-25T02:57:08.782Z,24.80
2018-04-25T02:58:08.771Z,23.80
2018-04-25T02:59:08.767Z,24.80
2018-04-25T03:00:08.766Z,25.00
2018-04-25T03:01:08.753Z,24.60
2018-04-25T03:02:08.744Z,23.80
2018-04-25T03:03:08.736Z,25.80
2018-04-25T03:04:08.729Z,25.10
2018-04-25T03:05:08.721Z,24.60
2018-04-25T03:06:08.713Z,24.90
2018-04-25T03:07:08.707Z,25.30
2018-04-25T03:08:08.699Z,25.40
2018-04-25T03:09:08.801Z,26.40
2018-04-25T03:10:08.683Z,23.90
2018-04-25T03:11:08.676Z,26.20
2018-04-25T03:12:08.765Z,26.00
2018-04-25T03:13:08.671Z,26.30
2018-04-25T03:14:08.652Z,26.30
2018-04-25T03:15:08.646Z,26.80
2018-04-25T03:16:08.645Z,26.10
2018-04-25T03:17:08.630Z,25.80
2018-04-25T03:18:08.623Z,27.30
2018-04-25T03:19:08.712Z,26.60
2018-04-25T03:20:08.607Z,27.10
2018-04-25T03:21:08.600Z,28.20
2018-04-25T03:22:08.592Z,27.30
2018-04-25T03:23:08.583Z,28.00
2018-04-25T03:24:08.576Z,28.10
2018-04-25T03:25:08.569Z,28.20
2018-04-25T03:26:08.561Z,28.00
2018-04-25T03:27:08.552Z,27.40
2018-04-25T03:28:08.546Z,28.20
2018-04-25T03:29:08.538Z,28.30
2018-04-25T03:30:08.531Z,28.40
2018-04-25T03:31:08.523Z,28.30
2018-04-25T03:32:08.516Z,28.30
2018-04-25T03:33:08.508Z,30.00
2018-04-25T03:34:08.500Z,28.20
2018-04-25T03:35:08.494Z,28.70
2018-04-25T03:36:08.485Z,28.80
2018-04-25T03:37:08.480Z,28.90
2018-04-25T03:38:08.479Z,29.40
2018-04-25T03:39:08.562Z,29.80
2018-04-25T03:40:08.454Z,30.30
2018-04-25T03:41:08.507Z,30.00
2018-04-25T03:42:08.437Z,30.10
2018-04-25T03:43:08.431Z,29.00
2018-04-25T03:44:08.425Z,30.10
2018-04-25T03:45:08.515Z,29.10
2018-04-25T03:46:08.408Z,30.20
2018-04-25T03:47:08.400Z,28.80
2018-04-25T03:48:08.393Z,30.30
2018-04-25T03:49:08.386Z,29.80
2018-04-25T03:50:08.379Z,32.50
2018-04-25T03:51:08.375Z,30.60
2018-04-25T03:52:08.362Z,30.80
2018-04-25T03:53:08.353Z,31.30
2018-04-25T03:54:08.346Z,30.90
2018-04-25T03:55:08.337Z,30.50
2018-04-25T03:56:08.330Z,30.70
2018-04-25T03:57:08.323Z,31.60
2018-04-25T03:58:08.315Z,32.60
2018-04-25T03:59:08.377Z,31.60
2018-04-25T04:00:08.298Z,31.10
2018-04-25T04:01:08.291Z,30.30
2018-04-25T04:02:08.360Z,30.00
2018-04-25T04:03:08.276Z,30.90
2018-04-25T04:04:08.271Z,30.90
2018-04-25T04:05:08.259Z,32.20
2018-04-25T04:06:08.252Z,32.90
2018-04-25T04:07:08.245Z,33.50
2018-04-25T04:08:08.237Z,33.60
2018-04-25T04:09:08.229Z,32.40
2018-04-25T04:10:08.220Z,32.70
2018-04-25T04:11:08.215Z,31.90
2018-04-25T04:12:08.206Z,34.50
2018-04-25T04:13:08.198Z,34.30
2018-04-25T04:14:08.190Z,34.10
2018-04-25T04:15:08.185Z,33.50
2018-04-25T04:16:08.174Z,34.10
2018-04-25T04:17:08.167Z,33.60
2018-04-25T04:18:08.157Z,33.40
2018-04-25T04:19:08.150Z,34.50
2018-04-25T04:20:08.143Z,34.00
2018-04-25T04:21:08.137Z,35.00
2018-04-25T04:22:08.126Z,33.70
2018-04-25T04:23:08.119Z,33.70
2018-04-25T04:24:08.111Z,33.80
2018-04-25T04:25:08.103Z,34.10
2018-04-25T04:26:08.095Z,34.80
2018-04-25T04:27:08.087Z,34.60
2018-04-25T04:28:08.081Z,35.30
2018-04-25T04:29:08.073Z,35.90
2018-04-25T04:30:08.063Z,35.40
2018-04-25T04:31:08.057Z,36.00
2018-04-25T04:32:08.050Z,34.60
2018-04-25T04:33:08.045Z,35.10
2018-04-25T04:34:08.032Z,36.20
2018-04-25T04:35:08.024Z,36.30
2018-04-25T04:36:08.017Z,35.90
2018-04-25T04:37:08.009Z,36.10
2018-04-25T04:38:08.001Z,35.80
2018-04-25T04:39:07.993Z,37.30
2018-04-25T04:40:07.986Z,37.30
2018-04-25T04:41:07.981Z,39.00
2018-04-25T04:42:07.969Z,38.10
2018-04-25T04:43:08.022Z,37.80
2018-04-25T04:44:07.953Z,36.50
2018-04-25T04:45:07.951Z,37.10
2018-04-25T04:46:07.937Z,38.10
2018-04-25T04:47:07.929Z,36.80
2018-04-25T04:48:07.920Z,39.30
2018-04-25T04:49:07.914Z,39.70
2018-04-25T04:50:07.905Z,39.00
2018-04-25T04:51:07.896Z,39.30
2018-04-25T04:52:07.888Z,38.60
2018-04-25T04:53:07.881Z,39.60
2018-04-25T04:54:07.872Z,39.10
2018-04-25T04:55:07.865Z,38.60
2018-04-25T04:56:07.862Z,38.50
2018-04-25T04:57:07.848Z,39.30
2018-04-25T04:58:07.841Z,38.90
2018-04-25T04:59:07.833Z,39.10
2018-04-25T05:00:07.826Z,38.20
2018-04-25T05:01:07.818Z,40.80
2018-04-25T05:02:07.809Z,37.70
2018-04-25T05:03:07.801Z,38.50
2018-04-25T05:04:07.794Z,40.20
2018-04-25T05:05:07.785Z,38.40
2018-04-25T05:06:07.778Z,40.10
2018-04-25T05:07:07.769Z,39.10
2018-04-25T05:08:07.763Z,39.20
2018-04-25T05:09:07.754Z,38.70
2018-04-25T05:10:07.746Z,39.50
2018-04-25T05:11:07.739Z,39.10
2018-04-25T05:12:07.730Z,39.00
2018-04-25T05:13:07.733Z,40.00
2018-04-25T05:14:07.717Z,38.90
2018-04-25T05:15:07.807Z,40.00
2018-04-25T05:16:07.698Z,39.10
2018-04-25T05:17:07.691Z,41.10
2018-04-25T05:18:07.686Z,40.40
2018-04-25T05:19:07.675Z,40.20
2018-04-25T05:20:07.666Z,39.60
2018-04-25T05:21:07.659Z,39.30
2018-04-25T05:22:07.647Z,38.90
2018-04-25T05:23:07.641Z,39.00
2018-04-25T05:24:07.634Z,38.40
2018-04-25T05:25:07.625Z,40.10
2018-04-25T05:26:07.618Z,38.20
2018-04-25T05:27:07.609Z,39.50
2018-04-25T05:28:07.602Z,39.40
2018-04-25T05:29:07.594Z,38.10
2018-04-25T05:30:07.585Z,39.70
2018-04-25T05:31:07.578Z,37.70
2018-04-25T05:32:07.609Z,41.10
2018-04-25T05:33:07.561Z,41.30
2018-04-25T05:34:07.552Z,40.90
2018-04-25T05:35:07.544Z,40.40
2018-04-25T05:36:07.537Z,41.10
2018-04-25T05:37:07.529Z,40.20
2018-04-25T05:38:07.523Z,39.20
2018-04-25T05:39:07.611Z,37.00
2018-04-25T05:40:07.505Z,38.60
2018-04-25T05:41:07.496Z,39.10
2018-04-25T05:42:07.488Z,38.60
2018-04-25T05:43:07.481Z,38.10
2018-04-25T05:44:07.472Z,37.30
2018-04-25T05:45:07.464Z,38.40
2018-04-25T05:46:07.455Z,40.90
2018-04-25T05:47:07.447Z,38.80
2018-04-25T05:48:07.440Z,39.60
2018-04-25T05:49:07.432Z,42.90
2018-04-25T05:50:07.435Z,45.40
2018-04-25T05:51:07.417Z,44.30
2018-04-25T05:52:07.408Z,43.10
2018-04-25T05:53:07.400Z,44.00
2018-04-25T05:54:07.392Z,45.40
2018-04-25T05:55:07.383Z,44.20
2018-04-25T05:56:07.375Z,43.90
2018-04-25T05:57:07.369Z,44.10
2018-04-25T05:58:07.359Z,45.30
2018-04-25T05:59:07.350Z,45.10
2018-04-25T06:00:07.342Z,44.50
2018-04-25T06:01:07.335Z,45.30
2018-04-25T06:02:07.330Z,44.60
2018-04-25T06:03:07.422Z,45.00
2018-04-25T06:04:07.311Z,44.80
2018-04-25T06:05:07.303Z,45.80
2018-04-25T06:06:07.294Z,44.70
2018-04-25T06:07:07.341Z,44.80
2018-04-25T06:08:07.280Z,46.10
2018-04-25T06:09:07.270Z,45.60
2018-04-25T06:10:07.264Z,44.60
2018-04-25T06:11:07.256Z,46.10
2018-04-25T06:12:07.256Z,45.70
2018-04-25T06:13:07.240Z,47.60
2018-04-25T06:14:07.232Z,47.30
2018-04-25T06:15:07.226Z,45.20
2018-04-25T06:16:07.217Z,44.50
2018-04-25T06:17:07.209Z,45.60
2018-04-25T06:18:07.199Z,46.50
2018-04-25T06:19:07.191Z,46.70
2018-04-25T06:20:07.185Z,45.70
2018-04-25T06:21:07.203Z,46.60
2018-04-25T06:22:07.168Z,46.30
2018-04-25T06:23:07.160Z,45.70
2018-04-25T06:24:07.152Z,46.30
2018-04-25T06:25:07.146Z,47.10
2018-04-25T06:26:07.139Z,46.70
2018-04-25T06:27:07.126Z,46.30
2018-04-25T06:28:07.190Z,46.30
2018-04-25T06:29:07.110Z,46.60
2018-04-25T06:30:07.103Z,48.10
2018-04-25T06:31:07.095Z,47.30
2018-04-25T06:32:07.088Z,46.40
2018-04-25T06:33:07.159Z,48.30
2018-04-25T06:34:07.070Z,49.40
2018-04-25T06:35:07.065Z,46.90
2018-04-25T06:36:07.054Z,47.00
2018-04-25T06:37:07.046Z,46.10
2018-04-25T06:38:07.038Z,47.10
2018-04-25T06:39:07.029Z,46.20
2018-04-25T06:40:07.022Z,47.40
2018-04-25T06:41:07.012Z,46.40
2018-04-25T06:42:07.006Z,46.10
2018-04-25T06:43:06.997Z,45.80
2018-04-25T06:44:06.988Z,44.80
2018-04-25T06:45:07.140Z,44.70
2018-04-25T06:46:06.976Z,45.20
2018-04-25T06:47:06.964Z,45.50
2018-04-25T06:48:06.955Z,45.50
2018-04-25T06:49:06.947Z,45.50
2018-04-25T06:50:06.938Z,44.30
2018-04-25T06:51:06.930Z,46.00
2018-04-25T06:52:06.920Z,45.80
2018-04-25T06:53:06.912Z,43.10
2018-04-25T06:54:06.903Z,45.20
2018-04-25T06:55:06.897Z,44.50
2018-04-25T06:56:06.888Z,44.40
2018-04-25T06:57:06.981Z,44.80
2018-04-25T06:58:06.871Z,43.30
2018-04-25T06:59:06.862Z,40.60
2018-04-25T07:00:06.859Z,40.20
2018-04-25T07:01:06.848Z,40.80
2018-04-25T07:02:06.838Z,38.10
2018-04-25T07:03:06.930Z,36.40
2018-04-25T07:04:06.822Z,36.40
2018-04-25T07:05:06.815Z,36.70
2018-04-25T07:06:06.806Z,37.10
2018-04-25T07:07:06.797Z,36.60
2018-04-25T07:08:06.859Z,35.30
2018-04-25T07:09:06.781Z,36.00
2018-04-25T07:10:06.773Z,39.10
2018-04-25T07:11:06.767Z,39.30
2018-04-25T07:12:06.756Z,37.90
2018-04-25T07:13:06.748Z,39.70
2018-04-25T07:14:06.779Z,40.20
2018-04-25T07:15:06.737Z,40.60
2018-04-25T07:16:06.723Z,41.20
2018-04-25T07:17:06.715Z,39.90
2018-04-25T07:18:06.707Z,39.60
2018-04-25T07:19:06.700Z,41.10
2018-04-25T07:20:06.690Z,40.40
2018-04-25T07:21:06.782Z,42.00
2018-04-25T07:22:06.673Z,42.30
2018-04-25T07:23:06.664Z,42.90
2018-04-25T07:24:06.657Z,40.60
2018-04-25T07:25:06.656Z,42.30
2018-04-25T07:26:06.640Z,41.30
2018-04-25T07:27:06.631Z,44.40
2018-04-25T07:28:06.626Z,43.30
2018-04-25T07:29:06.615Z,43.00
2018-04-25T07:30:06.605Z,44.30
2018-04-25T07:31:06.598Z,45.40
2018-04-25T07:32:06.591Z,44.70
2018-04-25T07:33:06.581Z,47.40
2018-04-25T07:34:06.571Z,47.50
2018-04-25T07:35:06.564Z,47.20
2018-04-25T07:36:06.565Z,46.20
2018-04-25T07:37:06.547Z,46.90
2018-04-25T07:38:06.540Z,48.80
2018-04-25T07:39:06.530Z,48.90
2018-04-25T07:40:06.526Z,47.20
2018-04-25T07:41:06.514Z,47.40
2018-04-25T07:42:06.505Z,47.00
2018-04-25T07:43:06.496Z,47.00
2018-04-25T07:44:06.488Z,47.90
2018-04-25T07:45:06.480Z,49.40
2018-04-25T07:46:06.471Z,47.40
2018-04-25T07:47:06.464Z,46.50
2018-04-25T07:48:06.454Z,53.80
2018-04-25T07:49:06.446Z,61.60
2018-04-25T07:50:06.437Z,59.00
2018-04-25T07:51:06.531Z,56.90
2018-04-25T07:52:06.422Z,56.20
2018-04-25T07:53:06.410Z,52.80
2018-04-25T07:54:06.402Z,52.10
2018-04-25T07:55:06.395Z,54.40
2018-04-25T07:56:06.386Z,55.10
2018-04-25T07:57:06.379Z,56.20
2018-04-25T07:58:06.368Z,56.40
2018-04-25T07:59:06.360Z,56.90
2018-04-25T08:00:06.352Z,56.90
2018-04-25T08:01:06.343Z,54.00
2018-04-25T08:02:06.334Z,53.20
2018-04-25T08:03:06.328Z,53.00
2018-04-25T08:04:06.318Z,54.30
2018-04-25T08:05:06.308Z,53.50
2018-04-25T08:06:06.341Z,54.20
2018-04-25T08:07:06.291Z,53.00
2018-04-25T08:08:06.283Z,51.80
2018-04-25T08:09:06.274Z,52.00
2018-04-25T08:10:06.265Z,52.40
2018-04-25T08:11:06.257Z,51.50
2018-04-25T08:12:06.248Z,51.70
2018-04-25T08:13:06.241Z,51.00
2018-04-25T08:14:06.233Z,49.40
2018-04-25T08:15:06.224Z,48.50
2018-04-25T08:16:06.219Z,49.40
2018-04-25T08:17:06.205Z,51.50
2018-04-25T08:18:06.196Z,49.30
2018-04-25T08:19:06.188Z,50.50
2018-04-25T08:20:06.179Z,49.70
2018-04-25T08:21:06.171Z,49.60
2018-04-25T08:22:06.161Z,48.50
2018-04-25T08:23:06.162Z,49.70
2018-04-25T08:24:06.144Z,50.80
2018-04-25T08:25:06.137Z,50.00
2018-04-25T08:26:06.126Z,49.60
2018-04-25T08:27:06.121Z,49.20
2018-04-25T08:28:06.110Z,48.90
2018-04-25T08:29:06.103Z,49.50
2018-04-25T08:30:06.092Z,49.70
2018-04-25T08:31:06.084Z,47.70
2018-04-25T08:32:06.077Z,48.70
2018-04-25T08:33:06.070Z,47.80
2018-04-25T08:34:06.059Z,49.20
2018-04-25T08:35:06.051Z,48.00
2018-04-25T08:36:06.043Z,50.20
2018-04-25T08:37:06.033Z,49.00
2018-04-25T08:38:06.024Z,49.10
2018-04-25T08:39:06.016Z,46.70
2018-04-25T08:40:06.008Z,46.90
2018-04-25T08:41:06.002Z,47.00
2018-04-25T08:42:05.989Z,48.20
2018-04-25T08:43:05.981Z,47.00
2018-04-25T08:44:05.976Z,46.60
2018-04-25T08:45:06.035Z,46.20
2018-04-25T08:46:05.959Z,46.20
2018-04-25T08:47:05.948Z,45.90
2018-04-25T08:48:05.979Z,44.80
2018-04-25T08:49:05.931Z,46.30
2018-04-25T08:50:05.922Z,46.40
2018-04-25T08:51:05.914Z,46.90
2018-04-25T08:52:05.907Z,46.50
2018-04-25T08:53:05.898Z,45.50
2018-04-25T08:54:05.889Z,45.00
2018-04-25T08:55:05.881Z,43.50
2018-04-25T08:56:05.873Z,43.70
2018-04-25T08:57:05.965Z,44.50
2018-04-25T08:58:05.854Z,43.20
2018-04-25T08:59:05.848Z,44.10
2018-04-25T09:00:05.839Z,44.60
2018-04-25T09:01:05.831Z,41.80
2018-04-25T09:02:05.822Z,41.90
2018-04-25T09:03:05.813Z,43.20
2018-04-25T09:04:05.805Z,41.50
2018-04-25T09:05:05.798Z,41.90
2018-04-25T09:06:05.787Z,41.50
2018-04-25T09:07:05.780Z,42.60
2018-04-25T09:08:05.772Z,41.60
2018-04-25T09:09:05.764Z,43.60
2018-04-25T09:10:05.755Z,42.10
2018-04-25T09:11:05.748Z,42.60
2018-04-25T09:12:05.739Z,41.80
2018-04-25T09:13:05.730Z,41.40
2018-04-25T09:14:05.801Z,40.80
2018-04-25T09:15:05.712Z,40.70
2018-04-25T09:16:05.705Z,41.40
2018-04-25T09:17:05.696Z,43.00
2018-04-25T09:18:05.689Z,41.40
2018-04-25T09:19:05.679Z,42.60
2018-04-25T09:20:05.671Z,43.30
2018-04-25T09:21:05.667Z,42.30
2018-04-25T09:22:05.652Z,41.10
2018-04-25T09:23:05.645Z,41.00
2018-04-25T09:24:05.642Z,40.10
2018-04-25T09:25:05.629Z,40.20
2018-04-25T09:26:05.619Z,40.70
2018-04-25T09:27:05.612Z,40.20
2018-04-25T09:28:05.602Z,41.40
2018-04-25T09:29:05.594Z,40.80
2018-04-25T09:30:05.589Z,41.20
2018-04-25T09:31:05.575Z,40.60
2018-04-25T09:32:05.569Z,40.80
2018-04-25T09:33:05.560Z,39.90
2018-04-25T09:34:05.554Z,40.30
2018-04-25T09:35:05.543Z,39.90
2018-04-25T09:36:05.535Z,39.90
2018-04-25T09:37:05.525Z,41.60
2018-04-25T09:38:05.518Z,40.50
2018-04-25T09:39:05.508Z,40.30
2018-04-25T09:40:05.501Z,40.80
2018-04-25T09:41:05.494Z,40.20
2018-04-25T09:42:05.483Z,39.40
2018-04-25T09:43:05.475Z,40.60
2018-04-25T09:44:05.469Z,41.60
2018-04-25T09:45:05.459Z,40.00
2018-04-25T09:46:05.450Z,40.80
2018-04-25T09:47:05.447Z,39.00
2018-04-25T09:48:05.434Z,38.90
2018-04-25T09:49:05.428Z,38.70
2018-04-25T09:50:05.417Z,39.30
2018-04-25T09:51:05.410Z,38.30
2018-04-25T09:52:05.401Z,37.90
2018-04-25T09:53:05.394Z,38.50
2018-04-25T09:54:05.384Z,38.10
2018-04-25T09:55:05.375Z,38.30
2018-04-25T09:56:05.397Z,36.20
2018-04-25T09:57:05.360Z,36.00
2018-04-25T09:58:05.417Z,35.90
2018-04-25T09:59:05.346Z,37.50
2018-04-25T10:00:05.335Z,36.90
2018-04-25T10:01:05.328Z,36.20
2018-04-25T10:02:05.317Z,35.80
2018-04-25T10:03:05.309Z,36.20
2018-04-25T10:04:05.351Z,36.70
2018-04-25T10:05:05.294Z,36.70
2018-04-25T10:06:05.285Z,34.70
2018-04-25T10:07:05.283Z,36.90
2018-04-25T10:08:05.274Z,35.70
2018-04-25T10:09:05.261Z,35.10
2018-04-25T10:10:05.251Z,35.20
2018-04-25T10:11:05.245Z,35.60
2018-04-25T10:12:05.237Z,33.80
2018-04-25T10:13:05.229Z,33.70
2018-04-25T10:14:05.220Z,33.60
2018-04-25T10:15:05.211Z,32.60
2018-04-25T10:16:05.205Z,34.40
2018-04-25T10:17:05.201Z,35.50
2018-04-25T10:18:05.191Z,37.90
2018-04-25T10:19:05.186Z,37.20
2018-04-25T10:20:05.172Z,36.80
2018-04-25T10:21:05.164Z,37.30
2018-04-25T10:22:05.155Z,35.90
2018-04-25T10:23:05.148Z,35.00
2018-04-25T10:24:05.163Z,34.80
2018-04-25T10:25:05.134Z,33.90
2018-04-25T10:26:05.124Z,35.50
2018-04-25T10:27:05.116Z,35.20
2018-04-25T10:28:05.108Z,35.50
2018-04-25T10:29:05.100Z,34.60
2018-04-25T10:30:05.095Z,34.10
2018-04-25T10:31:05.084Z,35.30
2018-04-25T10:32:05.160Z,33.30
2018-04-25T10:33:05.069Z,33.70
2018-04-25T10:34:05.058Z,32.90
2018-04-25T10:35:05.053Z,32.10
2018-04-25T10:36:05.045Z,31.70
2018-04-25T10:37:05.037Z,30.00
2018-04-25T10:38:05.029Z,30.20
2018-04-25T10:39:05.025Z,29.30
2018-04-25T10:40:05.014Z,28.90
2018-04-25T10:41:05.005Z,31.20
2018-04-25T10:42:04.997Z,31.70
2018-04-25T10:43:04.992Z,31.50
2018-04-25T10:44:04.984Z,30.70
2018-04-25T10:45:04.973Z,30.30
2018-04-25T10:46:04.967Z,29.60
2018-04-25T10:47:04.957Z,31.60
2018-04-25T10:48:04.949Z,30.60
2018-04-25T10:49:04.942Z,31.20
2018-04-25T10:50:04.934Z,30.50
2018-04-25T10:51:04.925Z,30.00
2018-04-25T10:52:04.918Z,30.20
2018-04-25T10:53:04.910Z,30.60
2018-04-25T10:54:04.902Z,31.20
2018-04-25T10:55:04.897Z,30.20
2018-04-25T10:56:04.886Z,29.20
2018-04-25T10:57:04.877Z,30.80
2018-04-25T10:58:04.869Z,30.80
2018-04-25T10:59:04.863Z,29.40
2018-04-25T11:00:04.854Z,30.10
2018-04-25T11:01:04.847Z,31.20
2018-04-25T11:02:04.837Z,29.60
2018-04-25T11:03:04.830Z,30.30
2018-04-25T11:04:04.824Z,30.10
2018-04-25T11:05:04.816Z,30.00
2018-04-25T11:06:04.823Z,30.20
2018-04-25T11:07:04.801Z,30.60
2018-04-25T11:08:04.792Z,30.20
2018-04-25T11:09:04.935Z,32.70
2018-04-25T11:10:04.776Z,30.30
2018-04-25T11:11:04.769Z,29.60
2018-04-25T11:12:04.761Z,28.50
2018-04-25T11:13:04.753Z,29.00
2018-04-25T11:14:04.744Z,29.60
2018-04-25T11:15:04.738Z,29.00
2018-04-25T11:16:04.730Z,29.70
2018-04-25T11:17:04.723Z,30.40
2018-04-25T11:18:04.715Z,29.40
2018-04-25T11:19:04.707Z,30.50
2018-04-25T11:20:04.700Z,31.00
2018-04-25T11:21:04.693Z,30.20
2018-04-25T11:22:04.684Z,29.80
2018-04-25T11:23:04.677Z,30.90
2018-04-25T11:24:04.671Z,32.00
2018-04-25T11:25:04.664Z,31.60
2018-04-25T11:26:04.654Z,31.10
2018-04-25T11:27:04.646Z,34.10
2018-04-25T11:28:04.640Z,34.10
2018-04-25T11:29:04.632Z,34.50
2018-04-25T11:30:04.625Z,32.80
2018-04-25T11:31:04.617Z,33.10
2018-04-25T11:32:04.609Z,33.00
2018-04-25T11:33:04.648Z,34.60
2018-04-25T11:34:04.594Z,34.90
2018-04-25T11:35:04.587Z,33.60
2018-04-25T11:36:04.580Z,32.10
2018-04-25T11:37:04.571Z,31.50
2018-04-25T11:38:04.564Z,34.40
2018-04-25T11:39:04.557Z,29.80
2018-04-25T11:40:04.551Z,32.60
2018-04-25T11:41:04.543Z,32.40
2018-04-25T11:42:04.537Z,31.10
2018-04-25T11:43:04.531Z,31.00
2018-04-25T11:44:04.522Z,27.40
2018-04-25T11:45:04.515Z,31.20
2018-04-25T11:46:04.507Z,29.00
2018-04-25T11:47:04.566Z,32.30
2018-04-25T11:48:04.494Z,30.40
2018-04-25T11:49:04.488Z,29.30
2018-04-25T11:50:04.480Z,30.70
2018-04-25T11:51:04.475Z,29.40
2018-04-25T11:52:04.469Z,31.70
2018-04-25T11:53:04.464Z,30.50
2018-04-25T11:54:04.462Z,30.40
2018-04-25T11:55:04.447Z,29.20
2018-04-25T11:56:04.593Z,30.50
2018-04-25T11:57:04.434Z,27.90
2018-04-25T11:58:04.429Z,27.50
2018-04-25T11:59:04.422Z,27.30
2018-04-25T12:00:04.415Z,31.40
2018-04-25T12:01:04.411Z,31.90
2018-04-25T12:02:04.408Z,30.60
2018-04-25T12:03:04.397Z,33.40
2018-04-25T12:04:04.391Z,33.90
2018-04-25T12:05:04.402Z,32.50
2018-04-25T12:06:04.379Z,35.20
2018-04-25T12:07:04.373Z,35.70
2018-04-25T12:08:04.368Z,36.60
2018-04-25T12:09:04.362Z,32.50
2018-04-25T12:10:04.357Z,34.40
2018-04-25T12:11:04.352Z,34.60
2018-04-25T12:12:04.346Z,30.80
2018-04-25T12:13:04.430Z,30.70
2018-04-25T12:14:04.332Z,31.80
2018-04-25T12:15:04.328Z,30.90
2018-04-25T12:16:04.322Z,34.30
2018-04-25T12:17:04.317Z,31.90
2018-04-25T12:18:04.311Z,31.20
2018-04-25T12:19:04.307Z,32.90
2018-04-25T12:20:04.302Z,32.60
2018-04-25T12:21:04.298Z,30.90
2018-04-25T12:22:04.290Z,28.80
2018-04-25T12:23:04.285Z,33.30
2018-04-25T12:24:04.283Z,33.50
2018-04-25T12:25:04.282Z,33.20
2018-04-25T12:26:04.270Z,34.20
2018-04-25T12:27:04.265Z,35.00
2018-04-25T12:28:04.259Z,32.80
2018-04-25T12:29:04.257Z,31.90
2018-04-25T12:30:04.250Z,34.60
2018-04-25T12:31:04.244Z,32.30
2018-04-25T12:32:04.241Z,33.20
2018-04-25T12:33:04.236Z,33.00
2018-04-25T12:34:04.232Z,32.00
2018-04-25T12:35:04.238Z,35.00
2018-04-25T12:36:04.225Z,34.50
2018-04-25T12:37:04.216Z,34.10
2018-04-25T12:38:04.213Z,34.00
2018-04-25T12:39:04.208Z,35.30
2018-04-25T12:40:04.202Z,34.90
2018-04-25T12:41:04.200Z,35.50
2018-04-25T12:42:04.194Z,34.10
2018-04-25T12:43:04.191Z,32.70
2018-04-25T12:44:04.186Z,31.70
2018-04-25T12:45:04.181Z,32.70
2018-04-25T12:46:04.176Z,34.40
2018-04-25T12:47:04.174Z,34.50
2018-04-25T12:48:04.171Z,34.40
2018-04-25T12:49:04.165Z,32.70
2018-04-25T12:50:04.158Z,31.80
2018-04-25T12:51:04.153Z,33.90
2018-04-25T12:52:04.150Z,31.70